Time;durP1;ratioP1;P1;durP2;ratioP2;P2;SDS_P1;SDS_P2;PMS_P1;PMS_P2;Temp;Humidity;BMP_temperature;BMP_pressure;BME280_temperature;BME280_humidity;BME280_pressure;Samples;Min_cycle;Max_cycle;Signal;HPM_P1;HPM_P2
2022/11/15 00:01:09;;;;;;;9.55;6.78;;;10.20;99.90;;;;;;7351006;32;20099;-59
2022/11/15 00:05:11;;;;;;;9.20;6.43;;;10.20;99.90;;;;;;7359084;32;20201;-61
2022/11/15 00:09:12;;;;;;;16.23;6.68;;;10.20;99.90;;;;;;7354820;32;20520;-60
2022/11/15 00:13:14;;;;;;;10.65;6.43;;;10.30;99.90;;;;;;7354610;32;20228;-59
2022/11/15 00:17:16;;;;;;;10.70;6.28;;;10.50;99.90;;;;;;7353633;32;20095;-61
2022/11/15 00:21:18;;;;;;;7.93;6.28;;;10.60;99.90;;;;;;7349123;32;20141;-59
2022/11/15 00:25:19;;;;;;;8.48;6.12;;;10.50;99.90;;;;;;7353469;32;20238;-59
2022/11/15 00:29:21;;;;;;;10.27;6.10;;;10.60;99.90;;;;;;7344441;32;20543;-61
2022/11/15 00:33:23;;;;;;;8.88;5.93;;;10.70;99.90;;;;;;7351444;32;20578;-60
2022/11/15 00:37:24;;;;;;;10.35;6.55;;;10.80;99.90;;;;;;7351793;32;20110;-60
2022/11/15 00:41:26;;;;;;;11.30;6.60;;;10.70;99.90;;;;;;7355228;32;20108;-59
2022/11/15 00:45:28;;;;;;;10.77;6.18;;;10.80;99.90;;;;;;7348268;32;20607;-59
2022/11/15 00:49:29;;;;;;;8.00;6.07;;;10.80;99.90;;;;;;7357037;32;20189;-60
2022/11/15 00:53:31;;;;;;;10.00;6.28;;;10.90;99.90;;;;;;7353354;32;20160;-60
2022/11/15 00:57:33;;;;;;;9.25;5.82;;;10.90;99.90;;;;;;7354191;32;20194;-59
2022/11/15 01:01:35;;;;;;;8.27;5.75;;;11.10;99.90;;;;;;7350773;32;20815;-60
2022/11/15 01:05:39;;;;;;;11.70;6.28;;;11.10;99.90;;;;;;7357280;32;20107;-59
2022/11/15 01:09:41;;;;;;;9.45;5.95;;;11.10;99.90;;;;;;7351770;32;20550;-60
2022/11/15 01:13:42;;;;;;;13.05;6.12;;;11.10;99.90;;;;;;7352813;32;20145;-61
2022/11/15 01:17:44;;;;;;;9.93;6.07;;;11.10;99.90;;;;;;7349718;32;20104;-59
2022/11/15 01:21:49;;;;;;;10.95;6.37;;;11.10;99.90;;;;;;7349044;32;20119;-60
2022/11/15 01:25:50;;;;;;;11.55;6.18;;;11.30;99.90;;;;;;7351882;32;20107;-59
2022/11/15 01:29:52;;;;;;;9.45;6.20;;;11.20;99.90;;;;;;7353868;32;20103;-61
2022/11/15 01:33:54;;;;;;;8.77;6.28;;;11.20;99.90;;;;;;7350781;32;20229;-61
2022/11/15 01:37:55;;;;;;;9.25;5.47;;;11.20;99.90;;;;;;7350389;32;20506;-59
2022/11/15 01:41:57;;;;;;;8.68;6.05;;;11.30;99.90;;;;;;7352004;32;20111;-59
2022/11/15 01:46:21;;;;;;;10.05;5.82;;;11.20;99.90;;;;;;7354988;32;20198;-59
2022/11/15 01:50:28;;;;;;;8.40;6.25;;;11.30;99.90;;;;;;7354203;32;20534;-61
2022/11/15 01:54:31;;;;;;;10.13;6.15;;;11.30;99.90;;;;;;7355156;32;20944;-59
2022/11/15 01:58:33;;;;;;;10.43;5.57;;;11.20;99.90;;;;;;7349271;32;20131;-60
2022/11/15 02:02:36;;;;;;;11.57;5.57;;;11.20;99.90;;;;;;7350830;32;20241;-60
2022/11/15 02:06:39;;;;;;;10.13;6.10;;;11.30;99.90;;;;;;7352731;32;20130;-59
2022/11/15 02:10:41;;;;;;;9.68;5.55;;;11.40;99.90;;;;;;7349938;32;20100;-61
2022/11/15 02:14:46;;;;;;;12.10;6.32;;;11.40;99.90;;;;;;7349516;32;20095;-61
2022/11/15 02:19:03;;;;;;;6.85;5.43;;;11.30;99.90;;;;;;7350790;32;20103;-59
2022/11/15 02:23:46;;;;;;;11.33;6.17;;;11.50;99.90;;;;;;7351611;32;20125;-60
2022/11/15 02:28:07;;;;;;;10.50;5.62;;;11.50;99.90;;;;;;7338364;32;20130;-62
2022/11/15 02:32:26;;;;;;;8.68;6.15;;;11.50;99.90;;;;;;7352798;32;20138;-59
2022/11/15 02:36:46;;;;;;;8.80;6.25;;;11.50;99.90;;;;;;7346837;32;20222;-59
2022/11/15 02:40:59;;;;;;;9.48;6.12;;;11.60;99.90;;;;;;7353700;32;20171;-60
2022/11/15 02:45:07;;;;;;;8.25;6.35;;;11.50;99.90;;;;;;7348330;32;20112;-60
2022/11/15 02:49:11;;;;;;;11.02;6.62;;;11.50;99.90;;;;;;7345439;32;20096;-60
2022/11/15 02:53:15;;;;;;;13.32;6.53;;;11.50;99.90;;;;;;7351299;32;20100;-60
2022/11/15 02:57:22;;;;;;;8.77;5.78;;;11.60;99.90;;;;;;7346214;32;20133;-60
2022/11/15 03:01:45;;;;;;;9.50;6.37;;;11.60;99.90;;;;;;7347907;32;20539;-60
2022/11/15 03:06:07;;;;;;;12.90;6.22;;;11.70;99.90;;;;;;7350648;32;20201;-60
2022/11/15 03:10:16;;;;;;;7.72;5.95;;;11.60;99.90;;;;;;7343153;32;20496;-60
2022/11/15 03:14:34;;;;;;;12.07;6.30;;;11.60;99.90;;;;;;7358661;32;20130;-59
2022/11/15 03:18:41;;;;;;;9.43;5.97;;;11.70;99.90;;;;;;7357582;32;20092;-59
2022/11/15 03:22:45;;;;;;;10.13;6.50;;;11.70;99.90;;;;;;7356362;32;20542;-59
2022/11/15 03:26:48;;;;;;;9.68;5.95;;;11.70;99.90;;;;;;7355028;32;20121;-59
2022/11/15 03:30:54;;;;;;;9.30;5.78;;;11.80;99.90;;;;;;7357231;32;20208;-59
2022/11/15 03:35:01;;;;;;;8.95;6.47;;;11.80;99.90;;;;;;7357727;32;20104;-60
2022/11/15 03:39:07;;;;;;;9.90;6.30;;;11.70;99.90;;;;;;7361525;32;20145;-58
2022/11/15 03:43:19;;;;;;;8.63;6.32;;;11.70;99.90;;;;;;7346484;32;20452;-58
2022/11/15 03:47:34;;;;;;;11.38;6.72;;;11.70;99.90;;;;;;7354179;32;20122;-60
2022/11/15 03:51:36;;;;;;;8.05;5.32;;;11.70;99.90;;;;;;7355862;32;20118;-59
2022/11/15 03:55:38;;;;;;;9.90;5.95;;;11.70;99.90;;;;;;7351223;32;20481;-59
2022/11/15 03:59:39;;;;;;;7.62;5.82;;;11.70;99.90;;;;;;7348475;32;20088;-57
2022/11/15 04:03:41;;;;;;;5.97;5.35;;;11.80;99.90;;;;;;7355570;32;20117;-59
2022/11/15 04:07:43;;;;;;;8.70;5.60;;;11.80;99.90;;;;;;7354370;32;20515;-58
2022/11/15 04:11:44;;;;;;;8.20;5.25;;;11.90;99.90;;;;;;7351906;32;20135;-58
2022/11/15 04:15:46;;;;;;;6.50;4.80;;;11.90;99.90;;;;;;7356649;32;20126;-60
2022/11/15 04:24:14;;;;;;;5.97;4.65;;;11.90;99.90;;;;;;7354797;32;20125;-59
2022/11/15 04:28:16;;;;;;;7.30;5.00;;;12.00;99.90;;;;;;7357116;32;20554;-58
2022/11/15 04:32:18;;;;;;;5.97;4.45;;;12.00;99.90;;;;;;7356871;32;20125;-59
2022/11/15 04:40:40;;;;;;;7.87;5.22;;;11.90;99.90;;;;;;7356838;32;20190;-60
2022/11/15 04:44:42;;;;;;;5.55;4.35;;;11.90;99.90;;;;;;7353410;32;20129;-59
2022/11/15 04:48:43;;;;;;;7.50;4.85;;;11.90;99.90;;;;;;7350579;32;20131;-59
2022/11/15 04:52:53;;;;;;;11.23;4.93;;;11.80;99.90;;;;;;7350519;32;20190;-58
2022/11/15 04:56:55;;;;;;;6.80;4.70;;;11.90;99.90;;;;;;7341020;32;20137;-60
2022/11/15 05:00:56;;;;;;;7.72;5.32;;;11.90;99.90;;;;;;7348628;32;20107;-58
2022/11/15 05:04:58;;;;;;;7.32;5.30;;;11.80;99.90;;;;;;7348398;32;20168;-58
2022/11/15 05:08:59;;;;;;;8.65;5.43;;;11.70;99.90;;;;;;7354800;32;20507;-58
2022/11/15 05:13:01;;;;;;;6.00;5.40;;;11.70;99.90;;;;;;7355634;32;20279;-60
2022/11/15 05:17:03;;;;;;;7.68;5.50;;;11.80;99.90;;;;;;7348647;32;20153;-58
2022/11/15 05:21:10;;;;;;;6.95;5.20;;;11.60;99.90;;;;;;7352849;32;20292;-60
2022/11/15 05:25:12;;;;;;;7.55;5.62;;;11.60;99.90;;;;;;7352430;32;20103;-60
2022/11/15 05:29:14;;;;;;;6.80;6.07;;;11.60;99.90;;;;;;7354004;32;20126;-60
2022/11/15 05:33:15;;;;;;;9.82;6.45;;;11.60;99.90;;;;;;7347345;32;20107;-59
2022/11/15 05:37:18;;;;;;;6.87;5.90;;;11.50;99.90;;;;;;7353800;32;20742;-59
2022/11/15 05:41:24;;;;;;;8.55;6.60;;;11.60;99.90;;;;;;7353789;32;20095;-60
2022/11/15 05:45:26;;;;;;;8.40;6.93;;;11.60;99.90;;;;;;7350063;32;20103;-58
2022/11/15 05:49:31;;;;;;;8.65;6.50;;;11.50;99.90;;;;;;7354830;32;20538;-59
2022/11/15 05:53:34;;;;;;;9.18;7.00;;;11.50;99.90;;;;;;7356748;32;20123;-60
2022/11/15 05:57:36;;;;;;;7.57;6.35;;;11.50;99.90;;;;;;7355082;32;20215;-59
2022/11/15 06:01:39;;;;;;;7.15;6.30;;;11.50;99.90;;;;;;7350757;32;20589;-58
2022/11/15 06:05:41;;;;;;;6.80;6.10;;;11.50;99.90;;;;;;7350923;32;20623;-59
2022/11/15 06:09:42;;;;;;;7.55;6.25;;;11.50;99.90;;;;;;7349645;32;20130;-60
2022/11/15 06:13:44;;;;;;;6.87;5.82;;;11.50;99.90;;;;;;7351244;32;20597;-59
2022/11/15 06:17:46;;;;;;;8.02;5.68;;;11.60;99.90;;;;;;7349250;32;20127;-59
2022/11/15 06:21:47;;;;;;;6.40;5.25;;;11.70;99.90;;;;;;7349363;32;20103;-60
2022/11/15 06:25:49;;;;;;;6.50;5.37;;;11.80;99.90;;;;;;7356065;32;20470;-59
2022/11/15 06:29:51;;;;;;;7.12;5.95;;;11.80;99.90;;;;;;7351737;32;20201;-60
2022/11/15 06:33:52;;;;;;;6.62;5.60;;;11.70;99.90;;;;;;7356246;32;20244;-61
2022/11/15 06:37:54;;;;;;;7.95;5.20;;;11.60;99.90;;;;;;7349880;32;20095;-60
2022/11/15 06:41:56;;;;;;;9.50;5.40;;;11.60;99.90;;;;;;7351320;32;20616;-59
2022/11/15 06:45:59;;;;;;;7.78;5.30;;;11.70;99.90;;;;;;7347907;32;20228;-60
2022/11/15 06:50:01;;;;;;;9.57;6.70;;;11.60;99.90;;;;;;7346849;32;20178;-58
2022/11/15 06:54:02;;;;;;;7.03;4.62;;;11.50;99.90;;;;;;7354342;32;20621;-60
2022/11/15 06:58:04;;;;;;;6.22;4.30;;;11.60;99.90;;;;;;7351785;32;20090;-63
2022/11/15 07:02:06;;;;;;;6.28;3.85;;;11.70;99.90;;;;;;7356952;32;20104;-60
2022/11/15 07:06:09;;;;;;;5.20;4.43;;;11.60;99.90;;;;;;7354048;32;20667;-60
2022/11/15 07:10:10;;;;;;;5.65;4.07;;;11.70;99.90;;;;;;7351058;32;20203;-60
2022/11/15 07:14:12;;;;;;;3.95;3.20;;;11.80;99.90;;;;;;7344416;32;21185;-60
2022/11/15 07:18:14;;;;;;;5.62;4.20;;;11.80;99.90;;;;;;7344647;32;20211;-61
2022/11/15 07:22:16;;;;;;;4.55;3.28;;;11.70;99.90;;;;;;7344969;32;20109;-61
2022/11/15 07:26:18;;;;;;;4.57;3.10;;;11.70;99.90;;;;;;7342695;32;20129;-59
2022/11/15 07:30:19;;;;;;;3.87;2.92;;;11.80;99.90;;;;;;7348016;32;20178;-59
2022/11/15 07:34:21;;;;;;;5.12;3.30;;;11.70;99.90;;;;;;7348117;32;20178;-62
2022/11/15 07:38:23;;;;;;;4.28;3.08;;;11.80;99.90;;;;;;7350468;32;20135;-60
2022/11/15 07:46:45;;;;;;;4.47;2.53;;;11.80;99.90;;;;;;7348893;32;20091;-60
2022/11/15 07:50:47;;;;;;;7.68;3.40;;;11.80;99.90;;;;;;7342148;32;20112;-61
2022/11/15 07:54:48;;;;;;;4.45;2.28;;;11.80;99.90;;;;;;7358219;32;20126;-59
2022/11/15 07:58:50;;;;;;;4.68;3.05;;;11.80;99.90;;;;;;7357341;32;20428;-59
2022/11/15 08:02:52;;;;;;;4.50;2.67;;;11.80;99.90;;;;;;7348215;32;20492;-59
2022/11/15 08:06:54;;;;;;;3.67;2.75;;;11.70;99.90;;;;;;7351968;32;20600;-59
2022/11/15 08:10:58;;;;;;;3.60;2.70;;;11.80;99.90;;;;;;7354756;32;20111;-60
2022/11/15 08:14:59;;;;;;;4.68;2.78;;;11.90;99.90;;;;;;7353653;32;20107;-59
2022/11/15 08:19:01;;;;;;;5.87;2.42;;;11.90;99.90;;;;;;7354690;32;20182;-61
2022/11/15 08:23:04;;;;;;;2.87;1.90;;;12.10;99.90;;;;;;7355991;32;20214;-60
2022/11/15 08:27:14;;;;;;;4.55;2.17;;;12.20;99.90;;;;;;7361575;32;20221;-60
2022/11/15 08:31:18;;;;;;;3.05;1.77;;;12.20;99.90;;;;;;7346924;32;20175;-60
2022/11/15 08:35:20;;;;;;;4.15;2.17;;;12.30;99.90;;;;;;7355672;32;20107;-59
2022/11/15 08:39:29;;;;;;;3.37;1.98;;;12.30;99.90;;;;;;7352940;32;20174;-60
2022/11/15 08:43:31;;;;;;;2.22;2.03;;;12.30;99.90;;;;;;7349747;32;20273;-61
2022/11/15 08:47:33;;;;;;;4.00;2.55;;;12.30;99.90;;;;;;7355585;32;20529;-60
2022/11/15 08:51:35;;;;;;;3.33;2.08;;;12.30;99.90;;;;;;7352276;32;20114;-61
2022/11/15 08:55:38;;;;;;;5.00;2.08;;;12.40;99.90;;;;;;7350862;32;20198;-60
2022/11/15 08:59:40;;;;;;;3.72;1.98;;;12.40;99.90;;;;;;7353050;32;20199;-59
2022/11/15 09:03:41;;;;;;;4.30;1.85;;;12.30;99.90;;;;;;7349150;32;20183;-62
2022/11/15 09:07:43;;;;;;;5.28;2.05;;;12.30;99.90;;;;;;7349336;32;20190;-60
2022/11/15 09:11:45;;;;;;;3.53;1.80;;;12.20;99.90;;;;;;7349209;32;20663;-59
2022/11/15 09:15:48;;;;;;;3.47;2.10;;;12.20;99.90;;;;;;7346840;32;20530;-62
2022/11/15 09:19:49;;;;;;;3.12;1.73;;;12.10;99.90;;;;;;7352480;32;20121;-61
2022/11/15 09:23:52;;;;;;;5.00;1.65;;;12.20;99.90;;;;;;7352541;32;20153;-60
2022/11/15 09:27:53;;;;;;;2.33;1.45;;;12.30;99.90;;;;;;7349197;32;20538;-60
2022/11/15 09:31:55;;;;;;;3.10;1.80;;;12.20;99.90;;;;;;7353478;32;20127;-60
2022/11/15 09:36:06;;;;;;;4.37;1.50;;;12.30;99.90;;;;;;7351983;32;20127;-62
2022/11/15 09:40:20;;;;;;;3.95;1.52;;;12.30;99.90;;;;;;7346037;32;20254;-61
2022/11/15 09:44:39;;;;;;;5.00;1.67;;;12.40;99.90;;;;;;7360214;32;20290;-63
2022/11/15 09:49:01;;;;;;;2.58;1.60;;;12.30;99.90;;;;;;7351845;32;20198;-62
2022/11/15 09:53:03;;;;;;;4.40;1.62;;;12.40;99.90;;;;;;7345028;32;20300;-60
2022/11/15 09:57:16;;;;;;;4.62;1.80;;;12.40;99.90;;;;;;7356481;32;20103;-60
2022/11/15 10:01:54;;;;;;;4.05;1.15;;;12.40;99.90;;;;;;7348161;32;20122;-61
2022/11/15 10:06:03;;;;;;;2.60;1.30;;;12.30;99.90;;;;;;7342103;32;20602;-59
2022/11/15 10:10:29;;;;;;;2.85;1.00;;;12.40;99.90;;;;;;7353171;32;20123;-59
2022/11/15 10:14:31;;;;;;;3.28;1.23;;;12.50;99.90;;;;;;7343148;32;20256;-61
2022/11/15 10:18:45;;;;;;;2.25;1.10;;;12.50;99.90;;;;;;7345791;32;20123;-59
2022/11/15 10:22:52;;;;;;;2.62;0.90;;;12.50;99.90;;;;;;7347646;32;20137;-59
2022/11/15 10:26:56;;;;;;;1.95;0.90;;;12.50;99.90;;;;;;7355680;32;20537;-59
2022/11/15 10:31:00;;;;;;;1.55;0.90;;;12.60;99.90;;;;;;7355213;32;20121;-59
2022/11/15 10:35:18;;;;;;;2.00;0.65;;;12.60;99.90;;;;;;7358755;32;20156;-60
2022/11/15 10:39:19;;;;;;;3.47;0.82;;;12.60;99.90;;;;;;7348312;32;20106;-59
2022/11/15 10:43:21;;;;;;;2.60;0.60;;;12.60;99.90;;;;;;7353749;32;20860;-60
2022/11/15 10:47:31;;;;;;;5.40;0.80;;;12.50;99.90;;;;;;7354013;32;20478;-59
2022/11/15 10:51:49;;;;;;;1.03;0.70;;;12.70;99.90;;;;;;7347279;32;20095;-55
2022/11/15 10:55:54;;;;;;;2.62;0.73;;;12.70;99.90;;;;;;7351394;32;20179;-55
2022/11/15 11:00:18;;;;;;;3.28;0.68;;;12.80;99.90;;;;;;7354269;32;20754;-59
2022/11/15 11:04:21;;;;;;;2.15;0.70;;;12.90;99.90;;;;;;7345493;32;20551;-60
2022/11/15 11:08:24;;;;;;;4.32;0.68;;;12.80;99.90;;;;;;7350183;32;20102;-59
2022/11/15 11:12:31;;;;;;;2.87;0.82;;;12.80;99.90;;;;;;7349926;32;20122;-58
2022/11/15 11:16:44;;;;;;;5.62;1.10;;;12.80;99.90;;;;;;7346603;32;20154;-58
2022/11/15 11:20:51;;;;;;;3.00;0.68;;;12.80;99.90;;;;;;7349926;32;20126;-58
2022/11/15 11:25:05;;;;;;;2.03;0.60;;;12.80;99.90;;;;;;7352828;32;20204;-60
2022/11/15 11:29:30;;;;;;;1.48;0.57;;;12.90;99.90;;;;;;7351091;32;20107;-60
2022/11/15 11:33:34;;;;;;;3.15;0.50;;;13.00;99.90;;;;;;7358500;32;20528;-60
2022/11/15 11:37:52;;;;;;;1.90;0.50;;;12.90;99.90;;;;;;7353557;32;20141;-59
2022/11/15 11:42:25;;;;;;;3.62;0.77;;;13.10;99.90;;;;;;7354703;32;20564;-60
2022/11/15 11:46:33;;;;;;;2.37;0.47;;;13.20;99.90;;;;;;7350401;32;20103;-60
2022/11/15 11:50:37;;;;;;;4.05;1.27;;;13.10;99.90;;;;;;7357051;32;20103;-60
2022/11/15 11:55:17;;;;;;;1.65;0.40;;;13.20;99.90;;;;;;7356968;32;20114;-60
2022/11/15 11:59:21;;;;;;;2.20;0.43;;;13.20;99.90;;;;;;7356131;32;20170;-60
2022/11/15 12:03:42;;;;;;;1.85;0.50;;;13.20;99.90;;;;;;7357436;32;20111;-61
2022/11/15 12:07:46;;;;;;;3.92;0.50;;;13.30;99.90;;;;;;7353812;32;20275;-60
2022/11/15 12:12:13;;;;;;;2.37;0.43;;;13.40;99.90;;;;;;7352204;32;20131;-63
2022/11/15 12:16:20;;;;;;;1.48;0.50;;;13.30;99.90;;;;;;7347179;32;20551;-62
2022/11/15 12:20:27;;;;;;;6.25;2.05;;;13.30;99.90;;;;;;7358228;32;20207;-62
2022/11/15 12:24:40;;;;;;;3.03;0.75;;;13.40;99.90;;;;;;7352499;32;20132;-61
2022/11/15 12:28:57;;;;;;;2.20;0.40;;;13.40;99.90;;;;;;7343881;32;20598;-61
2022/11/15 12:33:33;;;;;;;5.95;0.50;;;13.40;99.90;;;;;;7348007;32;20107;-61
2022/11/15 12:37:38;;;;;;;1.77;0.40;;;13.30;99.90;;;;;;7358369;32;20150;-60
2022/11/15 12:42:01;;;;;;;3.47;0.47;;;13.40;99.90;;;;;;7350104;32;20130;-61
2022/11/15 12:46:05;;;;;;;3.20;0.50;;;13.30;99.90;;;;;;7327784;32;20547;-60
2022/11/15 12:50:13;;;;;;;3.03;0.60;;;13.40;99.90;;;;;;7346058;32;20743;-61
2022/11/15 12:54:24;;;;;;;2.97;0.57;;;13.60;99.90;;;;;;7357440;32;20190;-60
2022/11/15 12:58:48;;;;;;;2.87;0.65;;;13.50;99.90;;;;;;7354126;32;20516;-62
2022/11/15 13:02:53;;;;;;;4.80;1.02;;;13.40;99.90;;;;;;7355654;32;20114;-60
2022/11/15 13:07:04;;;;;;;6.87;0.50;;;13.50;99.90;;;;;;7356325;32;20548;-60
2022/11/15 13:11:43;;;;;;;1.75;0.60;;;13.70;99.90;;;;;;7354374;32;20139;-61
2022/11/15 13:15:59;;;;;;;2.75;0.70;;;13.60;99.90;;;;;;7353482;32;20139;-62
2022/11/15 13:20:05;;;;;;;1.73;0.62;;;13.90;99.90;;;;;;7352792;32;20542;-60
2022/11/15 13:24:13;;;;;;;3.22;0.40;;;14.00;99.90;;;;;;7353767;32;20114;-60
2022/11/15 13:28:15;;;;;;;2.87;0.68;;;14.10;99.90;;;;;;7357710;32;20204;-60
2022/11/15 13:32:17;;;;;;;4.55;0.68;;;14.10;99.90;;;;;;7357977;32;20244;-62
2022/11/15 13:36:23;;;;;;;2.22;0.50;;;14.10;99.90;;;;;;7352304;32;20516;-61
2022/11/15 13:40:30;;;;;;;4.53;0.70;;;14.00;99.90;;;;;;7352817;32;20099;-60
2022/11/15 13:44:33;;;;;;;1.98;0.75;;;14.00;99.90;;;;;;7352528;32;20221;-62
2022/11/15 13:48:35;;;;;;;4.78;0.82;;;14.20;99.90;;;;;;7354981;32;20286;-60
2022/11/15 13:52:40;;;;;;;4.68;0.62;;;14.10;99.90;;;;;;7349410;32;20483;-62
2022/11/15 13:56:54;;;;;;;4.80;0.80;;;14.10;99.90;;;;;;7341356;32;20206;-61
2022/11/15 14:01:04;;;;;;;2.65;0.50;;;14.10;99.90;;;;;;7348310;32;20129;-60
2022/11/15 14:05:19;;;;;;;3.17;0.70;;;14.10;99.90;;;;;;7344021;32;20107;-60
2022/11/15 14:09:45;;;;;;;4.70;0.73;;;14.20;99.90;;;;;;7345901;32;20119;-62
2022/11/15 14:14:08;;;;;;;2.45;0.60;;;14.00;99.90;;;;;;7351277;32;20152;-60
2022/11/15 14:18:59;;;;;;;3.80;0.85;;;13.90;99.90;;;;;;7351708;32;20179;-60
2022/11/15 14:23:04;;;;;;;2.72;0.90;;;13.80;99.90;;;;;;7344066;32;20103;-61
2022/11/15 14:27:25;;;;;;;2.25;0.70;;;13.60;99.90;;;;;;7357514;32;20125;-61
2022/11/15 14:31:26;;;;;;;2.92;0.73;;;13.50;99.90;;;;;;7353791;32;20214;-60
2022/11/15 14:35:28;;;;;;;2.87;0.80;;;13.60;99.90;;;;;;7354731;32;20511;-60
2022/11/15 14:39:30;;;;;;;5.18;1.12;;;13.60;99.90;;;;;;7347149;32;20156;-61
2022/11/15 14:43:31;;;;;;;3.62;0.90;;;13.50;99.90;;;;;;7352965;32;20898;-61
2022/11/15 14:47:33;;;;;;;3.25;0.95;;;13.50;99.90;;;;;;7353906;32;20211;-60
2022/11/15 14:51:35;;;;;;;4.22;1.20;;;13.40;99.90;;;;;;7345138;32;20099;-60
2022/11/15 14:55:37;;;;;;;2.83;1.20;;;13.40;99.90;;;;;;7357292;32;20111;-61
2022/11/15 14:59:38;;;;;;;5.45;1.20;;;13.40;99.90;;;;;;7345833;32;20130;-61
2022/11/15 15:03:40;;;;;;;3.78;1.40;;;13.30;99.90;;;;;;7357810;32;20115;-61
2022/11/15 15:07:42;;;;;;;3.80;1.23;;;13.30;99.90;;;;;;7357783;32;20189;-61
2022/11/15 15:11:44;;;;;;;2.75;1.65;;;13.20;99.90;;;;;;7351345;32;20119;-60
2022/11/15 15:15:47;;;;;;;4.10;1.40;;;13.20;99.90;;;;;;7351855;32;20141;-61
2022/11/15 15:19:49;;;;;;;3.83;1.52;;;13.10;99.90;;;;;;7352603;32;20479;-64
2022/11/15 15:23:51;;;;;;;4.18;1.70;;;13.00;99.90;;;;;;7356892;32;20194;-64
2022/11/15 15:27:53;;;;;;;5.07;1.40;;;13.00;99.90;;;;;;7353875;32;21336;-63
2022/11/15 15:31:55;;;;;;;3.40;1.73;;;12.90;99.90;;;;;;7356506;32;20198;-63
2022/11/15 15:35:57;;;;;;;3.37;1.30;;;13.00;99.90;;;;;;7357632;32;20234;-63
2022/11/15 15:39:59;;;;;;;4.65;1.50;;;12.90;99.90;;;;;;7358027;32;20134;-63
2022/11/15 15:44:00;;;;;;;3.22;1.55;;;12.80;99.90;;;;;;7357490;32;20106;-63
2022/11/15 15:48:03;;;;;;;3.72;1.70;;;12.80;99.90;;;;;;7351990;32;20237;-63
2022/11/15 15:52:04;;;;;;;2.67;1.35;;;12.90;99.90;;;;;;7356525;32;20792;-62
2022/11/15 15:56:07;;;;;;;2.47;1.10;;;12.70;99.90;;;;;;7356839;32;20459;-60
2022/11/15 16:00:10;;;;;;;2.15;1.50;;;12.70;99.90;;;;;;7357220;32;20106;-59
2022/11/15 16:04:12;;;;;;;5.05;2.10;;;12.70;99.90;;;;;;7346309;32;20214;-59
2022/11/15 16:08:26;;;;;;;3.60;1.58;;;12.80;99.90;;;;;;7357522;32;20115;-59
2022/11/15 16:12:33;;;;;;;3.80;1.50;;;12.70;99.90;;;;;;7346408;32;20519;-59
2022/11/15 16:16:35;;;;;;;2.90;1.45;;;12.70;99.90;;;;;;7352718;32;20225;-58
2022/11/15 16:20:41;;;;;;;2.97;1.40;;;12.60;99.90;;;;;;7352238;32;20222;-60
2022/11/15 16:24:43;;;;;;;4.50;1.70;;;12.60;99.90;;;;;;7356461;32;20111;-58
2022/11/15 16:28:45;;;;;;;2.92;1.15;;;12.60;99.90;;;;;;7354673;32;20225;-58
2022/11/15 16:32:47;;;;;;;4.30;1.30;;;12.70;99.90;;;;;;7360838;32;20107;-58
2022/11/15 16:36:49;;;;;;;3.00;1.80;;;12.60;99.90;;;;;;7353347;32;20129;-57
2022/11/15 16:40:51;;;;;;;2.85;1.42;;;12.60;99.90;;;;;;7351595;32;20104;-59
2022/11/15 16:44:53;;;;;;;6.32;1.58;;;12.60;99.90;;;;;;7358785;32;20275;-58
2022/11/15 16:48:54;;;;;;;7.20;1.92;;;12.60;99.90;;;;;;7357117;32;20230;-58
2022/11/15 16:52:58;;;;;;;2.92;1.50;;;12.60;99.90;;;;;;7350179;32;20134;-57
2022/11/15 16:57:00;;;;;;;5.70;1.80;;;12.70;99.90;;;;;;7346968;32;21856;-58
2022/11/15 17:01:01;;;;;;;4.07;1.52;;;12.70;99.90;;;;;;7360264;32;20527;-59
2022/11/15 17:05:03;;;;;;;4.75;1.55;;;12.70;99.90;;;;;;7348701;32;20211;-58
2022/11/15 17:09:19;;;;;;;2.28;1.40;;;12.80;99.90;;;;;;7347781;32;20107;-60
2022/11/15 17:13:21;;;;;;;4.95;1.70;;;12.80;99.90;;;;;;7357992;32;20115;-59
2022/11/15 17:17:25;;;;;;;1.83;1.30;;;12.80;99.90;;;;;;7357172;32;20574;-60
2022/11/15 17:21:27;;;;;;;5.03;1.50;;;12.90;99.90;;;;;;7347179;32;20116;-59
2022/11/15 17:25:34;;;;;;;3.37;1.40;;;12.80;99.90;;;;;;7352074;32;20641;-60
2022/11/15 17:29:36;;;;;;;3.10;1.30;;;12.80;99.90;;;;;;7356070;32;20095;-60
2022/11/15 17:33:39;;;;;;;3.17;1.52;;;12.90;99.90;;;;;;7352160;32;20150;-59
2022/11/15 17:37:41;;;;;;;3.20;1.30;;;12.90;99.90;;;;;;7358377;32;20107;-60
2022/11/15 17:41:42;;;;;;;2.80;1.40;;;12.90;99.90;;;;;;7352900;32;20206;-60
2022/11/15 17:45:44;;;;;;;2.42;1.40;;;12.90;99.90;;;;;;7349420;32;20762;-60
2022/11/15 17:49:46;;;;;;;2.67;1.40;;;12.90;99.90;;;;;;7349246;32;20146;-57
2022/11/15 17:53:49;;;;;;;2.50;1.42;;;13.00;99.90;;;;;;7354151;32;20106;-58
2022/11/15 17:57:51;;;;;;;2.87;1.20;;;13.00;99.90;;;;;;7350850;32;20108;-57
2022/11/15 18:01:52;;;;;;;4.20;1.37;;;13.00;99.90;;;;;;7348245;32;20581;-58
2022/11/15 18:05:54;;;;;;;2.65;1.40;;;12.90;99.90;;;;;;7351367;32;20119;-57
2022/11/15 18:09:56;;;;;;;4.35;2.00;;;12.90;99.90;;;;;;7354606;32;20258;-57
2022/11/15 18:14:01;;;;;;;3.95;1.85;;;12.90;99.90;;;;;;7351864;32;20103;-58
2022/11/15 18:18:02;;;;;;;3.20;1.05;;;12.80;99.90;;;;;;7348347;32;20381;-58
2022/11/15 18:22:06;;;;;;;6.07;1.62;;;12.80;99.90;;;;;;7351282;32;20099;-58
2022/11/15 18:26:12;;;;;;;2.30;1.50;;;12.70;99.90;;;;;;7354837;32;20194;-58
2022/11/15 18:30:14;;;;;;;3.15;1.70;;;12.80;99.90;;;;;;7354559;32;20132;-59
2022/11/15 18:34:16;;;;;;;3.17;1.50;;;12.80;99.90;;;;;;7355851;32;20139;-59
2022/11/15 18:38:18;;;;;;;2.47;1.55;;;12.70;99.90;;;;;;7346893;32;20112;-59
2022/11/15 18:42:19;;;;;;;3.45;1.70;;;12.60;99.90;;;;;;7353753;32;20150;-58
2022/11/15 18:46:23;;;;;;;3.95;2.00;;;12.40;99.90;;;;;;7352756;32;20165;-60
2022/11/15 18:50:25;;;;;;;3.20;2.00;;;12.40;99.90;;;;;;7353107;32;20182;-59
2022/11/15 18:54:27;;;;;;;2.55;1.83;;;12.40;99.90;;;;;;7353734;32;20104;-59
2022/11/15 18:58:38;;;;;;;4.75;2.87;;;12.30;99.90;;;;;;7348847;32;20115;-60
2022/11/15 19:02:39;;;;;;;6.12;2.85;;;12.10;99.90;;;;;;7349017;32;20194;-58
2022/11/15 19:06:42;;;;;;;3.62;2.35;;;12.10;99.90;;;;;;7350554;32;20210;-58
2022/11/15 19:10:44;;;;;;;4.35;2.35;;;12.10;99.90;;;;;;7346560;32;21482;-59
2022/11/15 19:14:46;;;;;;;3.90;2.70;;;11.90;99.90;;;;;;7345619;32;20135;-59
2022/11/15 19:18:51;;;;;;;7.18;3.20;;;11.90;99.90;;;;;;7349656;32;20271;-58
2022/11/15 19:22:52;;;;;;;6.20;3.20;;;11.80;99.90;;;;;;7351081;32;20202;-59
2022/11/15 19:26:54;;;;;;;3.90;2.55;;;11.80;99.90;;;;;;7347704;32;20108;-58
2022/11/15 19:31:12;;;;;;;3.25;2.50;;;11.80;99.90;;;;;;7351464;32;20112;-58
2022/11/15 19:35:14;;;;;;;5.62;3.40;;;11.70;99.90;;;;;;7350495;32;20132;-58
2022/11/15 19:39:17;;;;;;;6.43;3.45;;;11.60;99.90;;;;;;7355342;32;20111;-58
2022/11/15 19:43:18;;;;;;;8.15;3.67;;;11.60;99.90;;;;;;7350347;32;20129;-58
2022/11/15 19:47:21;;;;;;;4.45;3.28;;;11.60;99.90;;;;;;7339311;32;20103;-59
2022/11/15 19:51:25;;;;;;;4.82;3.33;;;11.50;99.90;;;;;;7355103;32;20202;-59
2022/11/15 19:55:26;;;;;;;5.55;3.30;;;11.50;99.90;;;;;;7359279;32;20115;-59
2022/11/15 19:59:28;;;;;;;3.97;2.72;;;11.60;99.90;;;;;;7358088;32;20115;-58
2022/11/15 20:03:31;;;;;;;4.15;3.47;;;11.50;99.90;;;;;;7352466;32;20553;-59
2022/11/15 20:07:33;;;;;;;4.30;2.87;;;11.50;99.90;;;;;;7356511;32;20233;-59
2022/11/15 20:11:36;;;;;;;4.40;2.90;;;11.60;99.90;;;;;;7357194;32;20362;-60
2022/11/15 20:15:38;;;;;;;5.15;3.30;;;11.50;99.90;;;;;;7353305;32;20137;-60
2022/11/15 20:19:40;;;;;;;3.65;2.85;;;11.50;99.90;;;;;;7352877;32;20132;-60
2022/11/15 20:23:42;;;;;;;6.37;3.47;;;11.50;99.90;;;;;;7351149;32;20107;-61
2022/11/15 20:27:44;;;;;;;5.55;3.37;;;11.60;99.90;;;;;;7352345;32;20182;-60
2022/11/15 20:31:46;;;;;;;4.87;3.40;;;11.50;99.90;;;;;;7352693;32;20186;-61
2022/11/15 20:35:48;;;;;;;4.82;3.22;;;11.50;99.90;;;;;;7353000;32;20131;-62
2022/11/15 20:39:50;;;;;;;6.15;3.67;;;11.50;99.90;;;;;;7359439;32;20102;-60
2022/11/15 20:43:52;;;;;;;5.87;3.53;;;11.50;99.90;;;;;;7354695;32;20165;-60
2022/11/15 20:47:55;;;;;;;4.90;3.60;;;11.50;99.90;;;;;;7356493;32;20765;-60
2022/11/15 20:51:57;;;;;;;7.25;4.20;;;11.50;99.90;;;;;;7347667;32;20107;-60
2022/11/15 20:56:07;;;;;;;5.03;3.30;;;11.50;99.90;;;;;;7351024;32;20115;-60
2022/11/15 21:00:10;;;;;;;4.97;3.87;;;11.50;99.90;;;;;;7356563;32;20126;-60
2022/11/15 21:04:11;;;;;;;4.37;3.20;;;11.40;99.90;;;;;;7345177;32;20116;-60
2022/11/15 21:08:13;;;;;;;4.20;3.35;;;11.40;99.90;;;;;;7347425;32;20214;-60
2022/11/15 21:12:15;;;;;;;6.15;3.62;;;11.40;99.90;;;;;;7353638;32;20133;-60
2022/11/15 21:16:17;;;;;;;4.47;3.53;;;11.40;99.90;;;;;;7355781;32;20137;-60
2022/11/15 21:20:19;;;;;;;5.57;3.72;;;11.50;99.90;;;;;;7353773;32;20551;-60
2022/11/15 21:24:22;;;;;;;5.85;4.10;;;11.40;99.90;;;;;;7345310;32;20179;-59
2022/11/15 21:28:24;;;;;;;4.37;3.78;;;11.40;99.90;;;;;;7349622;32;20215;-60